Time;durP1;ratioP1;P1;durP2;ratioP2;P2;SDS_P1;SDS_P2;PMS_P1;PMS_P2;Temp;Humidity;BMP_temperature;BMP_pressure;BME280_temperature;BME280_humidity;BME280_pressure;Samples;Min_cycle;Max_cycle;Signal;HPM_P1;HPM_P2
2021/07/17 00:02:16;;;;;;;4.90;2.00;;;;;;;24.01;47.49;102458.84;3780188;22;20072;-82
2021/07/17 00:05:08;;;;;;;4.85;2.40;;;;;;;24.04;45.63;102464.91;3711426;22;20037;-81
2021/07/17 00:16:45;;;;;;;6.05;2.78;;;;;;;23.78;47.74;102466.22;3779222;22;20032;-81
2021/07/17 00:43:49;;;;;;;4.75;2.38;;;;;;;23.28;48.65;102471.34;3768083;23;20049;-82
2021/07/17 00:46:23;;;;;;;4.72;2.17;;;;;;;23.25;47.96;102471.47;3782961;22;20044;-82
2021/07/17 00:52:08;;;;;;;4.78;2.00;;;;;;;23.15;48.07;102471.06;3743684;22;20048;-82
2021/07/17 01:01:09;;;;;;;3.33;1.60;;;;;;;23.00;47.10;102472.63;3744341;22;20055;31
2021/07/17 01:04:02;;;;;;;3.97;1.70;;;;;;;22.96;47.12;102470.19;3744507;22;20993;-81
2021/07/17 01:09:55;;;;;;;4.57;2.10;;;;;;;22.83;47.72;102475.19;1222131;22;21516;-81
2021/07/17 01:12:47;;;;;;;3.88;1.80;;;;;;;22.78;48.00;102478.06;1208503;22;21952;-80
2021/07/17 01:18:46;;;;;;;4.75;1.83;;;;;;;22.65;47.86;102471.56;3717046;22;20996;-81
2021/07/17 01:21:38;;;;;;;3.53;1.60;;;;;;;22.61;48.21;102471.75;3742208;22;20070;31
2021/07/17 01:33:12;;;;;;;4.65;1.90;;;;;;;22.21;49.71;102455.78;1194972;22;21523;-81
2021/07/17 01:51:04;;;;;;;3.17;1.55;;;;;;;21.99;48.71;102473.56;1215213;23;21475;-80
2021/07/17 02:03:12;;;;;;;3.05;1.70;;;;;;;21.78;49.60;102477.97;1216135;22;21931;-80
2021/07/17 02:15:22;;;;;;;3.53;1.42;;;;;;;21.60;49.26;102481.41;1221711;22;21605;-80
2021/07/17 02:30:38;;;;;;;4.55;1.60;;;;;;;21.41;50.60;102468.84;1222248;22;21457;-80
2021/07/17 02:33:31;;;;;;;4.22;1.70;;;;;;;21.38;50.26;102462.78;1260285;22;21703;-81
2021/07/17 02:45:25;;;;;;;4.35;1.92;;;;;;;21.25;50.48;102473.88;1220922;22;21924;-81
2021/07/17 02:54:27;;;;;;;4.60;1.92;;;;;;;21.14;51.46;102473.44;1217918;22;21443;-81
2021/07/17 03:00:13;;;;;;;5.20;2.17;;;;;;;21.10;51.61;102465.66;1218923;22;21447;-80
2021/07/17 03:17:42;;;;;;;5.55;2.05;;;;;;;20.89;51.28;102460.25;3697526;22;20967;-80
2021/07/17 03:23:42;;;;;;;6.80;2.40;;;;;;;20.82;52.12;102463.16;3697707;22;20967;-81
2021/07/17 03:32:43;;;;;;;5.22;1.98;;;;;;;20.69;52.49;102454.81;1220859;22;21498;-80
2021/07/17 03:35:35;;;;;;;3.17;1.50;;;;;;;20.65;52.10;102455.84;3664690;22;20060;31
2021/07/17 03:41:28;;;;;;;3.63;1.58;;;;;;;20.58;52.17;102456.97;3671684;22;20025;-81
2021/07/17 03:59:26;;;;;;;4.07;1.67;;;;;;;20.36;52.87;102460.38;1222098;22;21442;-80
2021/07/17 04:05:13;;;;;;;7.55;2.47;;;;;;;20.31;53.43;102450.84;1222913;22;21758;-80
2021/07/17 04:20:00;;;;;;;6.53;2.75;;;;;;;20.17;54.28;102448.66;1218919;22;21395;-81
2021/07/17 04:35:04;;;;;;;3.75;1.55;;;;;;;20.08;54.38;102454.31;1257969;22;20159;-81
2021/07/17 04:40:51;;;;;;;6.55;2.90;;;;;;;20.04;55.28;102448.25;1217767;22;21438;-80
2021/07/17 05:08:40;;;;;;;5.13;2.50;;;;;;;20.03;55.92;102457.13;1220627;22;21462;-81
2021/07/17 05:29:39;;;;;;;6.65;2.47;;;;;;;20.28;57.10;102467.75;1222328;22;21509;-81
2021/07/17 05:47:23;;;;;;;5.90;2.35;;;;;;;20.56;58.73;102466.78;3754274;22;20043;-81
2021/07/17 05:50:16;;;;;;;5.38;2.08;;;;;;;20.59;57.26;102462.25;3712142;22;20028;-82
2021/07/17 05:56:09;;;;;;;4.20;2.13;;;;;;;20.67;57.46;102469.91;1221885;22;21533;-81
2021/07/17 06:23:37;;;;;;;5.07;1.83;;;;;;;21.04;59.33;102479.19;3681709;22;20032;-80
2021/07/17 06:35:46;;;;;;;3.53;1.60;;;;;;;21.25;58.16;102492.50;3694755;23;20947;-82
2021/07/17 06:41:32;;;;;;;4.78;1.85;;;;;;;21.40;58.41;102501.69;1221476;22;21474;-81
2021/07/17 06:47:09;;;;;;;3.70;1.52;;;;;;;21.45;60.30;102491.75;3837969;22;20049;-81
2021/07/17 06:49:37;;;;;;;3.40;1.55;;;;;;;21.54;61.02;102506.44;3701564;22;20036;-81
2021/07/17 06:55:23;;;;;;;5.43;1.92;;;;;;;21.74;58.80;102495.84;1219094;22;21435;-80
2021/07/17 07:04:01;;;;;;;4.40;1.65;;;;;;;21.94;58.49;102503.00;3720371;23;20034;-81
2021/07/17 07:15:44;;;;;;;4.60;1.77;;;;;;;22.18;59.86;102508.28;3709477;22;20040;-81
2021/07/17 07:18:39;;;;;;;4.93;1.90;;;;;;;22.26;58.29;102500.84;1213529;22;21479;-81
2021/07/17 07:21:16;;;;;;;4.28;1.92;;;;;;;22.30;60.07;102505.06;3704398;23;20035;-82
2021/07/17 07:29:46;;;;;;;5.10;1.90;;;;;;;22.48;59.76;102503.41;3750418;22;20596;-82
2021/07/17 07:35:26;;;;;;;5.68;1.85;;;;;;;22.61;60.46;102509.03;3762511;23;21111;-82
2021/07/17 07:44:04;;;;;;;3.30;1.73;;;;;;;22.81;59.62;102503.72;3702482;22;20047;-82
2021/07/17 07:52:43;;;;;;;3.75;1.80;;;;;;;23.05;59.57;102517.72;3784899;22;20406;-82
2021/07/17 08:01:17;;;;;;;3.45;1.52;;;;;;;23.18;60.15;102513.56;3635040;22;20121;-81
2021/07/17 08:03:48;;;;;;;5.70;1.85;;;;;;;23.32;58.71;102515.59;3605714;39;20060;-81
2021/07/17 08:06:17;;;;;;;3.10;1.50;;;;;;;23.34;58.83;102513.69;3578465;40;25358;-81
2021/07/17 08:08:46;;;;;;;5.32;1.90;;;;;;;23.39;58.33;102505.47;3594364;39;20062;-81
2021/07/17 08:11:12;;;;;;;3.05;1.48;;;;;;;23.47;58.41;102511.28;3595567;39;20050;-81
2021/07/17 08:13:41;;;;;;;2.75;1.40;;;;;;;23.52;58.85;102504.81;3604489;39;20067;-81
2021/07/17 08:16:10;;;;;;;5.18;1.88;;;;;;;23.60;57.59;102504.44;3580182;40;20059;-81
2021/07/17 08:18:38;;;;;;;3.45;1.58;;;;;;;23.68;57.57;102506.78;3580383;39;21202;-81
2021/07/17 08:21:09;;;;;;;4.22;1.73;;;;;;;23.78;57.45;102508.06;3565187;40;20064;-81
2021/07/17 08:23:38;;;;;;;3.22;1.33;;;;;;;23.85;57.34;102512.13;3578100;40;20454;-81
2021/07/17 08:26:09;;;;;;;3.50;1.60;;;;;;;23.91;56.78;102509.16;3587003;40;20055;-81
2021/07/17 08:28:37;;;;;;;4.22;1.70;;;;;;;23.92;57.36;102500.19;3587349;40;20048;-81
2021/07/17 08:31:05;;;;;;;2.55;1.48;;;;;;;23.98;57.90;102499.06;3578583;39;20074;-81
2021/07/17 08:33:32;;;;;;;3.03;1.45;;;;;;;24.02;57.51;102505.94;3592114;40;20062;-81
2021/07/17 08:36:04;;;;;;;3.53;1.65;;;;;;;24.16;56.54;102507.91;3592258;39;20048;-82
2021/07/17 08:38:32;;;;;;;3.75;1.50;;;;;;;24.17;57.72;102507.81;3583049;40;20085;-81
2021/07/17 08:40:59;;;;;;;3.80;1.35;;;;;;;24.21;57.00;102495.19;3601929;39;20351;-81
2021/07/17 08:43:26;;;;;;;;;;;;;;;24.42;55.27;102510.13;3601652;39;20092;-81
2021/07/17 08:45:55;;;;;;;5.10;1.60;;;;;;;24.40;56.34;102500.47;3584032;40;19943;-81
2021/07/17 08:48:30;;;;;;;3.38;1.50;;;;;;;24.54;55.51;102503.28;3601460;39;20047;-81
2021/07/17 08:50:59;;;;;;;5.45;1.58;;;;;;;24.55;55.69;102497.84;3577237;40;20064;-80
2021/07/17 08:53:34;;;;;;;4.10;1.27;;;;;;;24.66;55.30;102497.28;3592647;39;20054;-81
2021/07/17 08:56:01;;;;;;;4.07;1.50;;;;;;;24.68;56.28;102502.53;3579527;40;21009;-81
2021/07/17 08:58:29;;;;;;;4.68;1.90;;;;;;;24.77;55.43;102499.38;3579508;39;20064;-82
2021/07/17 09:00:56;;;;;;;3.53;1.33;;;;;;;24.80;56.17;102496.56;3592506;39;20058;-82
2021/07/17 09:03:23;;;;;;;5.78;1.80;;;;;;;24.92;55.09;102497.69;3595000;39;20416;-81
2021/07/17 09:05:50;;;;;;;2.95;1.35;;;;;;;24.86;55.42;102472.16;3591975;40;20848;-81
2021/07/17 09:08:20;;;;;;;3.47;1.67;;;;;;;25.07;54.75;102496.88;3594479;39;20060;-81
2021/07/17 09:10:51;;;;;;;3.17;1.33;;;;;;;25.15;54.34;102488.44;3593105;39;20086;-81
2021/07/17 09:13:20;;;;;;;3.33;1.52;;;;;;;25.26;54.89;102486.03;3589405;40;20055;-81
2021/07/17 09:15:54;;;;;;;4.10;1.60;;;;;;;25.33;54.58;102492.72;3592352;39;20064;-81
2021/07/17 09:18:29;;;;;;;4.15;1.70;;;;;;;25.41;54.52;102495.84;3585346;40;20060;-81
2021/07/17 09:21:17;;;;;;;4.07;1.40;;;;;;;25.48;54.41;102486.50;3591972;39;20409;-80
2021/07/17 09:24:18;;;;;;;3.75;1.60;;;;;;;25.60;53.86;102495.66;3573657;39;20527;-81
2021/07/17 09:27:00;;;;;;;4.25;1.80;;;;;;;25.64;54.59;102483.81;3594578;39;20064;-81
2021/07/17 09:29:37;;;;;;;3.38;1.35;;;;;;;25.76;53.99;102485.81;3576696;39;20125;-81
2021/07/17 09:32:15;;;;;;;3.90;1.73;;;;;;;26.03;53.55;102487.81;3599263;39;20325;-81
2021/07/17 09:34:46;;;;;;;3.65;1.35;;;;;;;26.29;52.61;102491.59;3599359;39;20109;-80
2021/07/17 09:37:14;;;;;;;2.72;1.30;;;;;;;26.59;52.28;102494.25;3590425;40;20067;-81
2021/07/17 09:39:49;;;;;;;4.38;1.90;;;;;;;27.02;51.86;102497.78;3598915;39;20084;-81
2021/07/17 09:42:21;;;;;;;2.80;1.30;;;;;;;27.40;51.00;102494.47;3585772;40;20064;-82
2021/07/17 09:44:52;;;;;;;3.17;1.63;;;;;;;27.76;50.12;102484.97;3571959;39;20115;-82
2021/07/17 09:47:23;;;;;;;2.70;1.45;;;;;;;28.12;48.67;102485.13;3577070;40;20064;-82
2021/07/17 09:50:16;;;;;;;3.97;1.77;;;;;;;28.58;48.93;102473.91;3585781;40;20095;-82
2021/07/17 09:52:46;;;;;;;3.47;1.60;;;;;;;28.99;48.38;102491.63;3577832;39;20104;-81
2021/07/17 09:55:16;;;;;;;3.13;1.55;;;;;;;29.32;47.75;102479.38;3595240;39;20316;-81
2021/07/17 09:57:44;;;;;;;3.40;1.88;;;;;;;29.71;46.85;102465.63;3580693;40;20076;-82
2021/07/17 10:00:18;;;;;;;3.75;1.33;;;;;;;30.22;46.76;102473.41;3587445;40;20127;-81
2021/07/17 10:02:55;;;;;;;3.33;1.52;;;;;;;30.70;44.93;102481.31;3576256;39;20059;-81
2021/07/17 10:05:37;;;;;;;3.30;1.67;;;;;;;31.23;45.63;102473.38;3573552;40;20137;-82
2021/07/17 10:08:15;;;;;;;6.18;1.60;;;;;;;31.59;44.82;102468.63;3585283;39;20087;-82
2021/07/17 10:11:01;;;;;;;4.75;1.80;;;;;;;32.19;43.38;102471.63;3570437;40;20092;-82
2021/07/17 10:13:28;;;;;;;3.75;1.73;;;;;;;32.42;40.45;102469.66;3590272;39;20064;-82
2021/07/17 10:15:57;;;;;;;3.55;1.83;;;;;;;32.86;39.98;102475.69;3593116;39;20133;-82
2021/07/17 10:18:24;;;;;;;3.78;1.90;;;;;;;33.07;38.53;102462.94;3568906;39;20770;-82
2021/07/17 10:20:53;;;;;;;5.57;2.03;;;;;;;33.43;38.77;102460.59;3587715;39;20068;-82
2021/07/17 10:23:20;;;;;;;3.65;1.65;;;;;;;33.74;38.10;102456.72;3588067;39;20083;-81
2021/07/17 10:25:48;;;;;;;4.07;1.88;;;;;;;34.05;37.84;102453.84;3572530;40;20052;-81
2021/07/17 10:28:16;;;;;;;3.22;1.85;;;;;;;34.42;38.01;102455.72;3569543;39;20458;-81
2021/07/17 10:30:44;;;;;;;4.25;1.77;;;;;;;34.81;37.43;102467.31;3594669;39;20072;-82
2021/07/17 10:33:11;;;;;;;4.57;1.58;;;;;;;35.18;35.19;102448.25;3580885;39;20062;-81
2021/07/17 10:35:39;;;;;;;2.92;1.48;;;;;;;35.56;35.66;102451.69;3591902;39;20040;-82
2021/07/17 10:38:11;;;;;;;3.25;1.75;;;;;;;36.00;33.54;102449.00;3584242;39;20052;-82
2021/07/17 10:40:39;;;;;;;6.55;2.28;;;;;;;36.34;33.97;102449.88;3581491;39;20059;-82
2021/07/17 10:43:07;;;;;;;3.75;1.92;;;;;;;36.64;31.93;102439.47;3581511;39;20138;-82
2021/07/17 10:45:40;;;;;;;2.72;1.65;;;;;;;37.16;33.42;102442.06;3576464;40;20090;-82
2021/07/17 10:48:33;;;;;;;4.40;1.95;;;;;;;37.66;34.40;102432.88;3590824;39;20842;-82
2021/07/17 10:51:22;;;;;;;3.95;1.73;;;;;;;37.98;30.91;102448.41;3590839;39;20067;-83
2021/07/17 10:53:53;;;;;;;4.07;1.65;;;;;;;38.35;30.22;102439.63;3582810;39;20706;-83
2021/07/17 10:56:41;;;;;;;3.47;1.80;;;;;;;38.82;32.05;102443.34;3591741;39;20627;-82
2021/07/17 10:59:28;;;;;;;4.82;1.75;;;;;;;39.08;32.02;102448.50;3577916;39;20068;-82
2021/07/17 11:01:55;;;;;;;3.50;1.70;;;;;;;39.06;28.58;102436.91;3564859;39;20077;-82
2021/07/17 11:04:44;;;;;;;4.05;1.60;;;;;;;39.53;30.84;102442.19;3579162;39;20063;-82
2021/07/17 11:07:16;;;;;;;4.50;1.83;;;;;;;39.70;29.38;102434.75;3580956;39;20064;-82
2021/07/17 11:09:58;;;;;;;3.22;1.60;;;;;;;40.02;30.01;102435.44;3582161;39;20052;-82
2021/07/17 11:12:30;;;;;;;4.50;1.75;;;;;;;40.18;27.21;102438.84;3581003;40;20932;-82
2021/07/17 11:15:09;;;;;;;4.93;1.95;;;;;;;40.65;29.65;102428.53;3566485;39;20053;-83
2021/07/17 11:17:45;;;;;;;4.07;1.85;;;;;;;40.96;28.93;102429.16;3581983;39;20100;-83
2021/07/17 11:20:38;;;;;;;5.45;1.42;;;;;;;41.42;28.65;102433.44;3579428;40;20082;-75
2021/07/17 11:23:08;;;;;;;3.85;1.65;;;;;;;41.71;25.49;102429.63;3580484;39;20063;-74
2021/07/17 11:25:35;;;;;;;5.18;1.80;;;;;;;42.12;26.69;102437.09;3576383;39;20149;-74
2021/07/17 11:28:02;;;;;;;3.65;1.80;;;;;;;42.57;25.61;102437.56;3579479;39;20099;-74
2021/07/17 11:30:34;;;;;;;2.88;1.50;;;;;;;43.16;26.11;102435.03;3578381;39;20511;-75
2021/07/17 11:33:04;;;;;;;2.72;1.58;;;;;;;43.60;24.60;102430.00;3579759;39;20045;-74
2021/07/17 11:35:32;;;;;;;5.35;1.85;;;;;;;43.94;22.80;102423.38;3578364;39;20106;-74
2021/07/17 11:38:00;;;;;;;6.38;1.70;;;;;;;44.31;23.00;102421.84;3577672;39;20064;-74
2021/07/17 11:40:27;;;;;;;3.70;1.65;;;;;;;44.59;23.21;102426.16;3575703;39;20056;-74
2021/07/17 11:43:03;;;;;;;4.13;2.00;;;;;;;44.87;23.16;102423.91;3578238;39;20070;-74
2021/07/17 11:45:30;;;;;;;3.03;1.50;;;;;;;44.82;22.95;102426.47;3578647;39;20435;-74
2021/07/17 11:48:12;;;;;;;3.20;1.55;;;;;;;45.10;23.28;102417.81;3567754;39;20061;-74
2021/07/17 11:50:40;;;;;;;4.05;1.88;;;;;;;44.92;21.42;102423.22;3580981;39;20076;-74
2021/07/17 11:53:14;;;;;;;4.15;1.88;;;;;;;45.09;21.44;102423.56;3577786;39;20072;-74
2021/07/17 11:55:42;;;;;;;4.00;1.70;;;;;;;45.07;21.03;102420.16;3574357;39;20060;-75
2021/07/17 11:58:16;;;;;;;4.20;2.08;;;;;;;45.29;22.13;102429.75;3579422;39;20076;-74
2021/07/17 12:00:44;;;;;;;2.80;1.60;;;;;;;45.18;20.46;102422.22;3580615;39;20652;-75
2021/07/17 12:03:11;;;;;;;4.07;1.80;;;;;;;45.22;19.86;102423.44;3579897;40;20080;-74
2021/07/17 12:05:38;;;;;;;4.15;1.90;;;;;;;45.27;21.14;102420.88;3588108;39;20577;-75
2021/07/17 12:08:05;;;;;;;4.63;1.70;;;;;;;45.25;20.97;102412.81;3587235;39;20064;-74
2021/07/17 12:10:36;;;;;;;4.32;1.80;;;;;;;45.22;19.65;102412.41;3587457;39;20521;-74
2021/07/17 12:13:04;;;;;;;3.72;2.15;;;;;;;45.30;20.67;102414.91;3586931;39;20405;-75
2021/07/17 12:15:41;;;;;;;4.60;2.10;;;;;;;45.65;21.32;102411.63;3576983;39;20055;-74
2021/07/17 12:18:16;;;;;;;3.97;2.22;;;;;;;45.82;21.17;102412.75;3587599;39;20067;-74
2021/07/17 12:20:44;;;;;;;4.00;2.00;;;;;;;45.81;21.07;102422.09;3588732;39;20055;-74
2021/07/17 12:23:24;;;;;;;3.47;1.80;;;;;;;45.93;21.39;102420.28;3592172;39;20406;-74
2021/07/17 12:26:02;;;;;;;4.03;1.90;;;;;;;45.62;20.11;102421.19;3591421;39;20418;-74
2021/07/17 12:28:35;;;;;;;4.97;2.25;;;;;;;45.39;20.41;102421.00;3587623;39;20055;-74
2021/07/17 12:31:10;;;;;;;3.95;2.00;;;;;;;45.29;21.24;102414.06;3573638;39;20068;-74
2021/07/17 12:33:39;;;;;;;4.93;2.20;;;;;;;45.10;20.61;102411.44;3587651;39;20055;-74
2021/07/17 12:36:26;;;;;;;5.85;2.38;;;;;;;45.23;21.33;102414.13;3579380;40;20432;-75
2021/07/17 12:38:56;;;;;;;3.80;2.10;;;;;;;45.12;20.46;102409.31;3587921;39;20058;-74
2021/07/17 12:41:43;;;;;;;4.65;2.03;;;;;;;45.28;21.82;102411.53;3588149;39;20074;-73
2021/07/17 12:44:10;;;;;;;4.30;2.25;;;;;;;45.18;20.93;102400.16;3586831;39;20599;-74
2021/07/17 12:46:43;;;;;;;3.83;2.22;;;;;;;45.28;20.84;102398.56;3589642;39;20044;-74
2021/07/17 12:49:15;;;;;;;4.57;2.08;;;;;;;45.54;20.84;102403.03;3581473;39;20085;-74
2021/07/17 12:51:48;;;;;;;6.18;2.60;;;;;;;45.76;20.34;102395.19;3578555;40;20062;-74
2021/07/17 12:54:23;;;;;;;4.30;2.22;;;;;;;45.97;20.23;102399.41;3577221;40;20072;-74
2021/07/17 12:56:53;;;;;;;4.75;2.13;;;;;;;46.05;19.10;102401.88;3591580;39;20370;-74
2021/07/17 12:59:28;;;;;;;4.45;1.92;;;;;;;46.26;19.91;102396.97;3590837;39;20055;-74
2021/07/17 13:01:58;;;;;;;5.20;2.88;;;;;;;46.31;19.25;102389.66;3586887;39;20152;-74
2021/07/17 13:04:27;;;;;;;4.55;2.30;;;;;;;46.45;19.47;102395.03;3585213;39;20056;-74
2021/07/17 13:06:55;;;;;;;6.32;2.55;;;;;;;46.63;20.15;102392.22;3589037;39;22237;-75
2021/07/17 13:09:33;;;;;;;5.50;2.38;;;;;;;46.97;20.50;102382.38;3587964;39;20062;-74
2021/07/17 13:12:05;;;;;;;5.68;2.47;;;;;;;47.10;19.59;102386.00;3587786;39;20059;-74
2021/07/17 13:14:34;;;;;;;5.03;2.55;;;;;;;47.04;19.05;102383.13;3567762;39;20071;-74
2021/07/17 13:17:13;;;;;;;4.45;2.20;;;;;;;47.13;19.96;102386.34;3584647;39;20051;-74
2021/07/17 13:19:44;;;;;;;4.93;2.60;;;;;;;47.13;19.83;102377.22;3586410;39;20054;-75
2021/07/17 13:22:12;;;;;;;4.47;2.30;;;;;;;47.15;19.09;102372.31;3581353;39;20071;-74
2021/07/17 13:24:55;;;;;;;;;;;;;;;47.42;21.15;102368.00;3586870;39;20541;-75
2021/07/17 13:27:27;;;;;;;4.95;2.65;;;;;;;47.40;18.88;102370.16;3587911;39;20240;-74
2021/07/17 13:29:55;;;;;;;8.00;3.20;;;;;;;47.24;19.12;102365.31;3588065;39;20064;-74
2021/07/17 13:32:30;;;;;;;5.00;2.60;;;;;;;47.26;19.29;102371.47;3587619;39;20048;-75
2021/07/17 13:35:13;;;;;;;6.65;3.10;;;;;;;47.15;18.58;102359.31;3572200;39;20099;-74
2021/07/17 13:37:39;;;;;;;6.03;2.88;;;;;;;47.10;18.00;102363.88;3588228;39;20063;-73
2021/07/17 13:40:11;;;;;;;6.05;3.15;;;;;;;47.05;18.88;102373.72;3577156;40;20161;-73
2021/07/17 13:42:38;;;;;;;5.55;3.25;;;;;;;46.91;18.61;102361.19;3587069;39;20068;-73
2021/07/17 13:45:10;;;;;;;8.20;3.28;;;;;;;46.78;19.29;102361.38;3588274;39;20059;-74
2021/07/17 13:47:45;;;;;;;6.20;2.92;;;;;;;46.70;19.73;102364.50;3571285;40;20079;-74
2021/07/17 13:50:21;;;;;;;5.32;3.00;;;;;;;46.70;19.54;102358.97;3591026;39;20569;-74
2021/07/17 13:52:55;;;;;;;6.35;2.75;;;;;;;46.65;19.34;102354.13;3581663;39;20088;-73
2021/07/17 13:55:29;;;;;;;4.45;2.40;;;;;;;46.69;20.30;102357.25;3584624;39;20091;-73
2021/07/17 13:58:12;;;;;;;6.63;2.90;;;;;;;46.82;20.00;102352.38;3590364;39;20092;-73
2021/07/17 14:00:52;;;;;;;4.63;2.75;;;;;;;46.93;19.74;102353.50;3586794;39;20063;-73
2021/07/17 14:03:21;;;;;;;4.22;2.80;;;;;;;46.88;19.00;102345.03;3568355;40;20270;-73
2021/07/17 14:05:56;;;;;;;4.47;2.67;;;;;;;47.00;19.51;102348.72;3583356;39;20062;-73
2021/07/17 14:08:23;;;;;;;6.63;2.57;;;;;;;47.03;18.80;102341.84;3578041;39;20060;-73
2021/07/17 14:10:52;;;;;;;4.47;2.50;;;;;;;47.22;18.96;102339.81;3587045;39;20298;-74
2021/07/17 14:13:20;;;;;;;5.50;3.00;;;;;;;47.33;19.24;102339.84;3585480;39;20553;-74
2021/07/17 14:15:47;;;;;;;4.53;2.50;;;;;;;47.43;18.54;102342.00;3577965;39;20051;-74
2021/07/17 14:18:14;;;;;;;7.25;3.20;;;;;;;47.52;18.45;102335.00;3577484;40;20052;-74
2021/07/17 14:20:41;;;;;;;4.28;2.55;;;;;;;47.66;18.28;102334.78;3586383;39;20048;-74
2021/07/17 14:23:09;;;;;;;4.82;2.40;;;;;;;47.81;18.08;102337.88;3587404;39;20075;-74
2021/07/17 14:25:38;;;;;;;4.32;2.60;;;;;;;47.96;18.33;102335.44;3585339;39;20056;-74
2021/07/17 14:28:09;;;;;;;3.53;2.22;;;;;;;48.11;18.04;102334.06;3586205;39;20105;-74
2021/07/17 14:30:36;;;;;;;3.78;2.47;;;;;;;48.15;17.98;102343.56;3586833;39;20071;-74
2021/07/17 14:33:04;;;;;;;5.13;2.30;;;;;;;48.24;18.07;102333.75;3586081;39;20064;-74
2021/07/17 14:35:32;;;;;;;6.05;2.88;;;;;;;48.27;17.86;102336.88;3587583;39;20060;-74
2021/07/17 14:37:59;;;;;;;6.20;3.47;;;;;;;48.26;17.43;102331.56;3582874;39;20460;-74
2021/07/17 14:40:26;;;;;;;6.82;4.20;;;;;;;48.14;17.83;102337.19;3586321;39;20474;-74
2021/07/17 14:42:53;;;;;;;8.52;4.45;;;;;;;47.91;18.25;102328.94;3586986;39;20054;-74
2021/07/17 14:45:20;;;;;;;8.13;4.82;;;;;;;47.70;17.66;102322.13;3577256;40;20744;-74
2021/07/17 14:47:47;;;;;;;11.15;6.13;;;;;;;47.55;18.42;102323.47;3585853;39;20080;-73
2021/07/17 14:50:15;;;;;;;10.50;7.22;;;;;;;47.45;18.33;102326.00;3585317;39;20055;-74
2021/07/17 14:52:42;;;;;;;13.50;8.80;;;;;;;47.28;18.19;102322.28;3585767;39;20051;-74
2021/07/17 14:55:09;;;;;;;13.70;8.98;;;;;;;47.10;18.66;102325.16;3585811;39;20052;-74
2021/07/17 14:57:37;;;;;;;13.35;9.10;;;;;;;46.96;17.96;102330.91;3581833;39;20378;-74
2021/07/17 15:00:07;;;;;;;15.77;11.00;;;;;;;46.93;18.49;102314.78;3586851;39;20105;-74
2021/07/17 15:02:49;;;;;;;17.13;11.82;;;;;;;46.84;18.07;102327.22;3576791;39;20067;-74
2021/07/17 15:05:16;;;;;;;15.88;10.32;;;;;;;46.76;18.15;102331.19;3574689;40;20667;-74
2021/07/17 15:07:43;;;;;;;16.42;10.13;;;;;;;46.68;18.80;102322.41;3575197;40;20056;-74
2021/07/17 15:10:11;;;;;;;12.65;8.30;;;;;;;46.54;18.25;102322.63;3567601;40;20068;-73
2021/07/17 15:12:38;;;;;;;15.70;8.07;;;;;;;46.42;18.98;102318.09;3575946;40;20551;-73
2021/07/17 15:15:06;;;;;;;12.25;7.03;;;;;;;46.41;18.38;102316.41;3578067;40;20102;-73
2021/07/17 15:17:33;;;;;;;10.95;7.10;;;;;;;46.48;18.79;102318.00;3565881;40;20048;-73
2021/07/17 15:20:00;;;;;;;11.52;7.30;;;;;;;46.59;18.27;102310.00;3580475;40;20199;-74
2021/07/17 15:22:27;;;;;;;10.45;6.22;;;;;;;46.59;18.45;102307.22;3576238;40;20411;-74
2021/07/17 15:24:54;;;;;;;11.15;6.15;;;;;;;46.47;18.04;102298.88;3573914;40;20436;-73
2021/07/17 15:27:28;;;;;;;9.40;6.05;;;;;;;46.31;19.14;102304.00;3568677;40;20055;-74
2021/07/17 15:29:56;;;;;;;9.75;6.20;;;;;;;46.21;18.96;102300.13;3574239;40;20499;-74
2021/07/17 15:32:24;;;;;;;9.77;6.03;;;;;;;46.19;18.51;102297.63;3577766;40;20088;-73
2021/07/17 15:34:52;;;;;;;12.38;6.88;;;;;;;46.11;18.90;102286.00;3578094;40;20390;-74
2021/07/17 15:37:19;;;;;;;11.70;8.20;;;;;;;46.10;18.48;102287.09;3578504;40;20137;-74
2021/07/17 15:39:48;;;;;;;11.30;7.45;;;;;;;46.02;18.88;102291.84;3567270;40;20068;-74
2021/07/17 15:42:15;;;;;;;11.18;7.13;;;;;;;45.94;19.40;102294.94;3577857;40;20048;-74
2021/07/17 15:44:42;;;;;;;9.20;5.70;;;;;;;45.89;18.94;102286.53;3576854;40;20494;-73
2021/07/17 15:47:09;;;;;;;14.50;7.20;;;;;;;45.88;18.88;102279.31;3578662;40;20099;-73
2021/07/17 15:49:36;;;;;;;10.40;6.43;;;;;;;45.83;18.75;102278.31;3574630;40;20137;-73
2021/07/17 15:52:03;;;;;;;9.90;6.45;;;;;;;45.73;18.68;102276.09;3577907;40;20145;-73
2021/07/17 15:54:30;;;;;;;8.52;5.10;;;;;;;45.52;18.87;102269.97;3580254;40;20078;-73
2021/07/17 15:57:00;;;;;;;8.40;4.97;;;;;;;45.38;19.73;102273.94;3566453;40;20060;-73
2021/07/17 15:59:28;;;;;;;7.93;4.80;;;;;;;45.29;19.82;102276.13;3568718;40;20067;-73
2021/07/17 16:01:56;;;;;;;7.93;3.85;;;;;;;45.26;19.75;102270.22;3565066;40;20060;-74
2021/07/17 16:04:25;;;;;;;7.88;4.88;;;;;;;45.21;19.90;102272.81;3575033;40;20087;-73
2021/07/17 16:06:53;;;;;;;8.00;4.47;;;;;;;45.20;20.13;102271.97;3577830;40;21089;-73
2021/07/17 16:09:20;;;;;;;9.60;5.00;;;;;;;45.20;19.30;102271.97;3568278;40;21249;-73
2021/07/17 16:11:48;;;;;;;9.18;5.00;;;;;;;45.13;19.26;102275.88;3565298;40;20092;-73
2021/07/17 16:14:16;;;;;;;7.22;4.32;;;;;;;44.89;19.15;102272.88;3563919;40;20504;-73
2021/07/17 16:16:43;;;;;;;7.60;4.15;;;;;;;44.57;19.91;102272.06;3576713;40;20088;-73
2021/07/17 16:19:12;;;;;;;8.40;4.68;;;;;;;44.13;20.51;102265.53;3578047;40;20368;-73
2021/07/17 16:21:43;;;;;;;10.80;5.80;;;;;;;43.72;20.78;102263.16;3577783;40;20048;-73
2021/07/17 16:24:14;;;;;;;12.68;7.03;;;;;;;43.38;20.98;102261.53;3572392;40;20648;-73
2021/07/17 16:26:42;;;;;;;15.77;9.02;;;;;;;43.10;21.08;102259.06;3568089;40;20071;-73
2021/07/17 16:29:10;;;;;;;17.35;8.80;;;;;;;42.84;21.97;102260.75;3577058;40;20071;-73
2021/07/17 16:31:36;;;;;;;15.85;9.27;;;;;;;42.61;21.97;102265.81;3572854;40;20056;-73
2021/07/17 16:34:04;;;;;;;13.95;7.50;;;;;;;42.45;22.09;102256.88;3566858;40;20503;-73
2021/07/17 16:36:30;;;;;;;8.55;5.82;;;;;;;42.36;22.24;102260.03;3575954;40;20130;-73
2021/07/17 16:38:57;;;;;;;15.88;6.68;;;;;;;42.23;22.45;102252.63;3577210;40;20472;-74
2021/07/17 16:41:24;;;;;;;13.98;7.72;;;;;;;42.07;22.49;102258.44;3563876;40;20137;-73
2021/07/17 16:43:51;;;;;;;12.93;7.65;;;;;;;41.96;22.29;102255.25;3568265;40;20133;-73
2021/07/17 16:46:17;;;;;;;14.85;7.88;;;;;;;41.85;23.13;102255.00;3577204;40;20144;-73
2021/07/17 16:48:46;;;;;;;13.35;7.95;;;;;;;41.76;23.14;102251.53;3575861;40;20092;-73
2021/07/17 16:51:14;;;;;;;15.80;8.63;;;;;;;41.73;22.66;102249.22;3576990;40;20067;-73
2021/07/17 16:53:40;;;;;;;15.88;9.18;;;;;;;41.69;22.89;102250.69;3574439;40;20149;-73
2021/07/17 16:56:07;;;;;;;17.40;9.07;;;;;;;41.70;22.94;102246.88;3575103;40;20860;-73
2021/07/17 16:58:34;;;;;;;15.77;9.63;;;;;;;41.61;22.37;102245.34;3577119;40;20055;-73
2021/07/17 17:01:02;;;;;;;15.50;8.63;;;;;;;41.36;23.12;102245.84;3576403;40;20384;-73
2021/07/17 17:03:29;;;;;;;17.33;9.65;;;;;;;41.11;23.26;102241.84;3588407;39;20048;-73
2021/07/17 17:05:55;;;;;;;14.25;8.32;;;;;;;40.94;23.72;102244.91;3585182;39;20782;-73
2021/07/17 17:08:22;;;;;;;14.77;7.80;;;;;;;40.81;23.74;102242.03;3587457;39;20168;-73
2021/07/17 17:10:50;;;;;;;12.05;7.00;;;;;;;40.70;24.10;102245.28;3575102;39;20125;-73
2021/07/17 17:13:21;;;;;;;11.95;7.03;;;;;;;40.61;23.60;102247.34;3569176;40;20048;-73
2021/07/17 17:15:53;;;;;;;11.82;7.20;;;;;;;40.52;23.55;102245.75;3586181;39;20416;-73
2021/07/17 17:18:23;;;;;;;14.68;8.30;;;;;;;40.34;24.12;102240.69;3585779;39;20056;-73
2021/07/17 17:20:52;;;;;;;14.80;7.60;;;;;;;40.05;24.08;102240.78;3575985;39;20051;-73
2021/07/17 17:23:19;;;;;;;16.27;7.80;;;;;;;39.75;24.71;102229.06;3585039;39;20067;-73
2021/07/17 17:25:47;;;;;;;16.67;9.38;;;;;;;39.56;24.88;102236.75;3586325;39;20125;-73
2021/07/17 17:28:14;;;;;;;19.70;9.82;;;;;;;39.39;24.74;102230.66;3576460;40;20067;-73
2021/07/17 17:30:42;;;;;;;21.83;10.75;;;;;;;39.20;25.24;102235.81;3573720;40;20078;-73
2021/07/17 17:33:09;;;;;;;18.77;10.60;;;;;;;38.99;25.58;102233.78;3587908;39;20420;-73
2021/07/17 17:35:36;;;;;;;13.82;7.75;;;;;;;38.79;25.33;102228.81;3586647;39;20074;-73